sensor_id;sensor_type;location;lat;lon;timestamp;temperature;humidity
41290;DHT22;36117;46.680;11.154;2022-10-16T00:00:39;20.70;78.60
41290;DHT22;36117;46.680;11.154;2022-10-16T00:03:06;20.90;77.80
41290;DHT22;36117;46.680;11.154;2022-10-16T00:05:33;20.90;77.60
41290;DHT22;36117;46.680;11.154;2022-10-16T00:08:03;20.80;77.40
41290;DHT22;36117;46.680;11.154;2022-10-16T00:10:28;20.70;78.10
41290;DHT22;36117;46.680;11.154;2022-10-16T00:12:54;20.40;79.40
41290;DHT22;36117;46.680;11.154;2022-10-16T00:15:20;19.70;81.60
41290;DHT22;36117;46.680;11.154;2022-10-16T00:17:46;19.40;83.30
41290;DHT22;36117;46.680;11.154;2022-10-16T00:20:12;19.50;83.90
41290;DHT22;36117;46.680;11.154;2022-10-16T00:22:37;19.50;83.90
41290;DHT22;36117;46.680;11.154;2022-10-16T00:25:03;19.70;83.10
41290;DHT22;36117;46.680;11.154;2022-10-16T00:27:29;19.70;83.30
41290;DHT22;36117;46.680;11.154;2022-10-16T00:29:55;20.00;82.70
41290;DHT22;36117;46.680;11.154;2022-10-16T00:32:21;19.80;82.20
41290;DHT22;36117;46.680;11.154;2022-10-16T00:34:47;19.60;83.20
41290;DHT22;36117;46.680;11.154;2022-10-16T00:37:13;19.80;83.00
41290;DHT22;36117;46.680;11.154;2022-10-16T00:39:39;20.00;82.60
41290;DHT22;36117;46.680;11.154;2022-10-16T00:42:05;20.10;81.90
41290;DHT22;36117;46.680;11.154;2022-10-16T00:44:51;20.30;81.20
41290;DHT22;36117;46.680;11.154;2022-10-16T00:47:32;20.40;80.50
41290;DHT22;36117;46.680;11.154;2022-10-16T00:52:45;20.60;80.10
41290;DHT22;36117;46.680;11.154;2022-10-16T00:55:12;20.60;80.30
41290;DHT22;36117;46.680;11.154;2022-10-16T00:57:39;20.70;79.10
41290;DHT22;36117;46.680;11.154;2022-10-16T01:00:07;20.80;79.10
41290;DHT22;36117;46.680;11.154;2022-10-16T01:02:34;20.80;79.20
41290;DHT22;36117;46.680;11.154;2022-10-16T01:05:00;20.70;79.30
41290;DHT22;36117;46.680;11.154;2022-10-16T01:10:39;20.70;78.80
41290;DHT22;36117;46.680;11.154;2022-10-16T01:13:09;20.80;79.40
41290;DHT22;36117;46.680;11.154;2022-10-16T01:18:16;20.90;78.30
41290;DHT22;36117;46.680;11.154;2022-10-16T01:20:53;21.00;78.00
41290;DHT22;36117;46.680;11.154;2022-10-16T01:31:08;20.30;80.50
41290;DHT22;36117;46.680;11.154;2022-10-16T01:33:43;20.50;80.90
41290;DHT22;36117;46.680;11.154;2022-10-16T01:36:20;20.10;81.40
41290;DHT22;36117;46.680;11.154;2022-10-16T01:38:50;20.40;80.80
41290;DHT22;36117;46.680;11.154;2022-10-16T01:41:22;20.60;80.10
41290;DHT22;36117;46.680;11.154;2022-10-16T01:44:08;20.70;79.00
41290;DHT22;36117;46.680;11.154;2022-10-16T01:46:40;20.90;78.80
41290;DHT22;36117;46.680;11.154;2022-10-16T01:49:08;20.90;78.50
41290;DHT22;36117;46.680;11.154;2022-10-16T01:51:35;21.00;78.00
41290;DHT22;36117;46.680;11.154;2022-10-16T01:54:05;20.70;78.40
41290;DHT22;36117;46.680;11.154;2022-10-16T01:56:34;20.80;78.20
41290;DHT22;36117;46.680;11.154;2022-10-16T01:59:09;20.90;78.70
41290;DHT22;36117;46.680;11.154;2022-10-16T02:01:40;20.70;79.30
41290;DHT22;36117;46.680;11.154;2022-10-16T02:04:28;20.60;79.70
41290;DHT22;36117;46.680;11.154;2022-10-16T02:06:55;20.70;79.70
41290;DHT22;36117;46.680;11.154;2022-10-16T02:09:21;20.70;79.80
41290;DHT22;36117;46.680;11.154;2022-10-16T02:11:47;20.70;79.20
41290;DHT22;36117;46.680;11.154;2022-10-16T02:14:15;20.80;79.20
41290;DHT22;36117;46.680;11.154;2022-10-16T02:16:44;21.00;78.50
41290;DHT22;36117;46.680;11.154;2022-10-16T02:19:13;21.00;78.20
41290;DHT22;36117;46.680;11.154;2022-10-16T02:21:56;21.00;78.50
41290;DHT22;36117;46.680;11.154;2022-10-16T02:24:38;21.10;78.20
41290;DHT22;36117;46.680;11.154;2022-10-16T02:27:27;21.00;78.10
41290;DHT22;36117;46.680;11.154;2022-10-16T02:30:09;20.90;78.80
41290;DHT22;36117;46.680;11.154;2022-10-16T02:32:39;20.60;79.20
41290;DHT22;36117;46.680;11.154;2022-10-16T02:35:10;20.50;79.60
41290;DHT22;36117;46.680;11.154;2022-10-16T02:37:39;20.50;79.90
41290;DHT22;36117;46.680;11.154;2022-10-16T02:40:07;20.60;79.70
41290;DHT22;36117;46.680;11.154;2022-10-16T02:42:35;20.80;78.90
41290;DHT22;36117;46.680;11.154;2022-10-16T02:45:01;20.80;79.10
41290;DHT22;36117;46.680;11.154;2022-10-16T02:47:27;20.90;78.50
41290;DHT22;36117;46.680;11.154;2022-10-16T02:49:53;21.00;78.20
41290;DHT22;36117;46.680;11.154;2022-10-16T02:52:19;21.00;78.30
41290;DHT22;36117;46.680;11.154;2022-10-16T02:54:45;21.00;77.60
41290;DHT22;36117;46.680;11.154;2022-10-16T02:57:11;21.00;78.00
41290;DHT22;36117;46.680;11.154;2022-10-16T02:59:37;20.70;79.40
41290;DHT22;36117;46.680;11.154;2022-10-16T03:02:03;20.50;80.10
41290;DHT22;36117;46.680;11.154;2022-10-16T03:04:29;20.70;79.50
41290;DHT22;36117;46.680;11.154;2022-10-16T03:06:55;20.80;79.40
41290;DHT22;36117;46.680;11.154;2022-10-16T03:09:21;20.50;79.70
41290;DHT22;36117;46.680;11.154;2022-10-16T03:11:47;20.50;80.70
41290;DHT22;36117;46.680;11.154;2022-10-16T03:14:13;20.50;80.30
41290;DHT22;36117;46.680;11.154;2022-10-16T03:16:39;20.50;80.30
41290;DHT22;36117;46.680;11.154;2022-10-16T03:19:04;20.70;80.00
41290;DHT22;36117;46.680;11.154;2022-10-16T03:21:30;20.90;79.20
41290;DHT22;36117;46.680;11.154;2022-10-16T03:23:56;20.80;79.30
41290;DHT22;36117;46.680;11.154;2022-10-16T03:26:22;20.90;79.50
41290;DHT22;36117;46.680;11.154;2022-10-16T03:28:48;21.00;78.40
41290;DHT22;36117;46.680;11.154;2022-10-16T03:31:13;21.00;78.30
41290;DHT22;36117;46.680;11.154;2022-10-16T03:33:39;20.70;78.50
41290;DHT22;36117;46.680;11.154;2022-10-16T03:36:05;20.80;79.50
41290;DHT22;36117;46.680;11.154;2022-10-16T03:38:32;20.70;79.30
41290;DHT22;36117;46.680;11.154;2022-10-16T03:40:58;20.70;79.60
41290;DHT22;36117;46.680;11.154;2022-10-16T03:43:24;20.60;79.60
41290;DHT22;36117;46.680;11.154;2022-10-16T03:45:51;20.70;79.80
41290;DHT22;36117;46.680;11.154;2022-10-16T03:48:18;20.80;79.30
41290;DHT22;36117;46.680;11.154;2022-10-16T03:50:43;20.70;79.20
41290;DHT22;36117;46.680;11.154;2022-10-16T03:53:09;20.70;79.30
41290;DHT22;36117;46.680;11.154;2022-10-16T03:55:35;20.50;79.80
41290;DHT22;36117;46.680;11.154;2022-10-16T03:58:01;20.50;79.20
41290;DHT22;36117;46.680;11.154;2022-10-16T04:00:27;20.80;78.60
41290;DHT22;36117;46.680;11.154;2022-10-16T04:02:53;20.70;78.30
41290;DHT22;36117;46.680;11.154;2022-10-16T04:05:20;20.80;78.30
41290;DHT22;36117;46.680;11.154;2022-10-16T04:07:46;20.60;78.50
41290;DHT22;36117;46.680;11.154;2022-10-16T04:10:12;20.80;78.30
41290;DHT22;36117;46.680;11.154;2022-10-16T04:12:37;20.80;78.40
41290;DHT22;36117;46.680;11.154;2022-10-16T04:15:03;20.60;79.00
41290;DHT22;36117;46.680;11.154;2022-10-16T04:17:29;20.50;79.30
41290;DHT22;36117;46.680;11.154;2022-10-16T04:19:55;20.40;79.70
41290;DHT22;36117;46.680;11.154;2022-10-16T04:22:21;20.40;79.80
41290;DHT22;36117;46.680;11.154;2022-10-16T04:24:47;20.60;78.20
41290;DHT22;36117;46.680;11.154;2022-10-16T04:27:13;20.40;78.50
41290;DHT22;36117;46.680;11.154;2022-10-16T04:29:38;20.50;78.60
41290;DHT22;36117;46.680;11.154;2022-10-16T04:32:04;20.60;78.20
41290;DHT22;36117;46.680;11.154;2022-10-16T04:34:30;20.80;77.30
41290;DHT22;36117;46.680;11.154;2022-10-16T04:36:56;20.90;77.20
41290;DHT22;36117;46.680;11.154;2022-10-16T04:39:22;20.90;77.10
41290;DHT22;36117;46.680;11.154;2022-10-16T04:41:47;20.70;77.30
41290;DHT22;36117;46.680;11.154;2022-10-16T04:44:13;20.60;77.60
41290;DHT22;36117;46.680;11.154;2022-10-16T04:46:39;20.60;78.30
41290;DHT22;36117;46.680;11.154;2022-10-16T04:49:04;20.60;78.70
41290;DHT22;36117;46.680;11.154;2022-10-16T04:51:31;20.60;78.50
41290;DHT22;36117;46.680;11.154;2022-10-16T04:53:57;20.50;78.40
41290;DHT22;36117;46.680;11.154;2022-10-16T04:56:22;20.50;78.60
41290;DHT22;36117;46.680;11.154;2022-10-16T04:58:49;20.60;78.40
41290;DHT22;36117;46.680;11.154;2022-10-16T05:01:15;20.40;78.70
41290;DHT22;36117;46.680;11.154;2022-10-16T05:03:41;20.40;79.00
41290;DHT22;36117;46.680;11.154;2022-10-16T05:06:07;20.50;78.30
41290;DHT22;36117;46.680;11.154;2022-10-16T05:08:33;20.40;78.40
41290;DHT22;36117;46.680;11.154;2022-10-16T05:10:59;20.40;78.40
41290;DHT22;36117;46.680;11.154;2022-10-16T05:13:25;20.60;78.30
41290;DHT22;36117;46.680;11.154;2022-10-16T05:15:51;20.60;78.20
41290;DHT22;36117;46.680;11.154;2022-10-16T05:18:17;20.60;77.90
41290;DHT22;36117;46.680;11.154;2022-10-16T05:20:43;20.50;78.40
41290;DHT22;36117;46.680;11.154;2022-10-16T05:23:09;20.60;78.20
41290;DHT22;36117;46.680;11.154;2022-10-16T05:25:38;20.60;78.10
41290;DHT22;36117;46.680;11.154;2022-10-16T05:28:04;20.60;78.30
41290;DHT22;36117;46.680;11.154;2022-10-16T05:30:30;20.60;78.30
41290;DHT22;36117;46.680;11.154;2022-10-16T05:32:56;20.40;79.20
41290;DHT22;36117;46.680;11.154;2022-10-16T05:35:21;20.10;79.90
41290;DHT22;36117;46.680;11.154;2022-10-16T05:37:47;20.00;80.40
41290;DHT22;36117;46.680;11.154;2022-10-16T05:40:14;20.20;80.70
41290;DHT22;36117;46.680;11.154;2022-10-16T05:42:40;20.10;81.00
41290;DHT22;36117;46.680;11.154;2022-10-16T05:45:08;20.20;80.60
41290;DHT22;36117;46.680;11.154;2022-10-16T05:47:34;20.30;81.20
41290;DHT22;36117;46.680;11.154;2022-10-16T05:50:00;20.10;81.60
41290;DHT22;36117;46.680;11.154;2022-10-16T05:52:27;19.90;82.10
41290;DHT22;36117;46.680;11.154;2022-10-16T05:54:53;19.80;83.30
41290;DHT22;36117;46.680;11.154;2022-10-16T05:57:19;19.60;83.90
41290;DHT22;36117;46.680;11.154;2022-10-16T05:59:45;19.80;84.40
41290;DHT22;36117;46.680;11.154;2022-10-16T06:02:14;19.50;84.20
41290;DHT22;36117;46.680;11.154;2022-10-16T06:04:40;19.50;85.30
41290;DHT22;36117;46.680;11.154;2022-10-16T06:07:06;19.50;85.10
41290;DHT22;36117;46.680;11.154;2022-10-16T06:09:32;19.40;85.50
41290;DHT22;36117;46.680;11.154;2022-10-16T06:11:58;19.20;85.80
41290;DHT22;36117;46.680;11.154;2022-10-16T06:14:24;19.30;86.50
41290;DHT22;36117;46.680;11.154;2022-10-16T06:16:50;19.70;85.80
41290;DHT22;36117;46.680;11.154;2022-10-16T06:19:16;19.80;84.40
41290;DHT22;36117;46.680;11.154;2022-10-16T06:21:43;19.80;83.80
41290;DHT22;36117;46.680;11.154;2022-10-16T06:24:09;19.90;83.70
41290;DHT22;36117;46.680;11.154;2022-10-16T06:26:36;20.00;83.30
41290;DHT22;36117;46.680;11.154;2022-10-16T06:29:02;19.90;83.10
41290;DHT22;36117;46.680;11.154;2022-10-16T06:31:28;19.90;83.30
41290;DHT22;36117;46.680;11.154;2022-10-16T06:33:56;19.90;83.50
41290;DHT22;36117;46.680;11.154;2022-10-16T06:36:23;20.00;82.90
41290;DHT22;36117;46.680;11.154;2022-10-16T06:38:50;20.10;82.80
41290;DHT22;36117;46.680;11.154;2022-10-16T06:41:19;20.50;81.70
41290;DHT22;36117;46.680;11.154;2022-10-16T06:43:46;20.80;80.50
41290;DHT22;36117;46.680;11.154;2022-10-16T06:46:15;20.90;79.90
41290;DHT22;36117;46.680;11.154;2022-10-16T06:48:41;21.00;79.40
41290;DHT22;36117;46.680;11.154;2022-10-16T06:53:34;21.10;78.90
41290;DHT22;36117;46.680;11.154;2022-10-16T06:56:14;21.20;78.90
41290;DHT22;36117;46.680;11.154;2022-10-16T06:58:41;21.30;78.80
41290;DHT22;36117;46.680;11.154;2022-10-16T07:01:08;21.30;78.90
41290;DHT22;36117;46.680;11.154;2022-10-16T07:03:37;21.30;78.60
41290;DHT22;36117;46.680;11.154;2022-10-16T07:06:05;21.40;78.90
41290;DHT22;36117;46.680;11.154;2022-10-16T07:08:35;21.20;79.00
41290;DHT22;36117;46.680;11.154;2022-10-16T07:11:03;21.20;79.30
41290;DHT22;36117;46.680;11.154;2022-10-16T07:13:31;21.30;79.10
41290;DHT22;36117;46.680;11.154;2022-10-16T07:15:58;21.10;79.20
41290;DHT22;36117;46.680;11.154;2022-10-16T07:18:29;21.10;79.20
41290;DHT22;36117;46.680;11.154;2022-10-16T07:21:03;21.30;79.00
41290;DHT22;36117;46.680;11.154;2022-10-16T07:23:29;21.30;78.20
41290;DHT22;36117;46.680;11.154;2022-10-16T07:25:55;21.60;77.70
41290;DHT22;36117;46.680;11.154;2022-10-16T07:28:21;21.60;77.40
41290;DHT22;36117;46.680;11.154;2022-10-16T07:30:47;21.80;76.70
41290;DHT22;36117;46.680;11.154;2022-10-16T07:33:13;21.70;76.70
41290;DHT22;36117;46.680;11.154;2022-10-16T07:35:49;21.70;76.40
41290;DHT22;36117;46.680;11.154;2022-10-16T07:38:15;21.80;76.20
41290;DHT22;36117;46.680;11.154;2022-10-16T07:40:41;21.90;75.90
41290;DHT22;36117;46.680;11.154;2022-10-16T07:43:07;21.90;75.80
41290;DHT22;36117;46.680;11.154;2022-10-16T07:45:33;21.90;75.80
41290;DHT22;36117;46.680;11.154;2022-10-16T07:47:59;22.10;75.60
41290;DHT22;36117;46.680;11.154;2022-10-16T07:50:24;22.00;75.40
41290;DHT22;36117;46.680;11.154;2022-10-16T07:52:50;22.10;75.20
41290;DHT22;36117;46.680;11.154;2022-10-16T07:55:16;21.90;75.10
41290;DHT22;36117;46.680;11.154;2022-10-16T07:57:42;21.80;75.50
41290;DHT22;36117;46.680;11.154;2022-10-16T08:00:08;21.80;75.80
41290;DHT22;36117;46.680;11.154;2022-10-16T08:02:39;21.90;75.10
41290;DHT22;36117;46.680;11.154;2022-10-16T08:05:06;22.20;74.50
41290;DHT22;36117;46.680;11.154;2022-10-16T08:07:32;22.40;73.90
41290;DHT22;36117;46.680;11.154;2022-10-16T08:09:58;23.00;72.10
41290;DHT22;36117;46.680;11.154;2022-10-16T08:12:25;23.30;71.00
41290;DHT22;36117;46.680;11.154;2022-10-16T08:14:51;23.40;70.90
41290;DHT22;36117;46.680;11.154;2022-10-16T08:17:17;23.60;70.10
41290;DHT22;36117;46.680;11.154;2022-10-16T08:19:46;23.40;69.70
41290;DHT22;36117;46.680;11.154;2022-10-16T08:22:13;23.80;69.30
41290;DHT22;36117;46.680;11.154;2022-10-16T08:24:40;24.10;68.10
41290;DHT22;36117;46.680;11.154;2022-10-16T08:27:07;24.60;66.30
41290;DHT22;36117;46.680;11.154;2022-10-16T08:29:34;24.40;65.90
41290;DHT22;36117;46.680;11.154;2022-10-16T08:32:00;24.70;65.40
41290;DHT22;36117;46.680;11.154;2022-10-16T08:34:26;24.90;64.60
41290;DHT22;36117;46.680;11.154;2022-10-16T08:36:53;25.20;64.30
41290;DHT22;36117;46.680;11.154;2022-10-16T08:39:20;25.10;64.10
41290;DHT22;36117;46.680;11.154;2022-10-16T08:47:23;25.50;62.40
41290;DHT22;36117;46.680;11.154;2022-10-16T08:50:09;25.30;62.50
41290;DHT22;36117;46.680;11.154;2022-10-16T08:52:39;25.80;61.50
41290;DHT22;36117;46.680;11.154;2022-10-16T08:55:06;25.60;61.80
41290;DHT22;36117;46.680;11.154;2022-10-16T08:57:32;25.40;62.10
41290;DHT22;36117;46.680;11.154;2022-10-16T09:00:00;25.00;62.80
41290;DHT22;36117;46.680;11.154;2022-10-16T09:02:40;25.50;62.60
41290;DHT22;36117;46.680;11.154;2022-10-16T09:05:36;26.20;61.50
41290;DHT22;36117;46.680;11.154;2022-10-16T09:11:35;26.50;61.10
41290;DHT22;36117;46.680;11.154;2022-10-16T09:14:37;27.50;58.90
41290;DHT22;36117;46.680;11.154;2022-10-16T09:19:42;26.90;59.50
41290;DHT22;36117;46.680;11.154;2022-10-16T09:22:14;27.50;58.60
41290;DHT22;36117;46.680;11.154;2022-10-16T09:24:40;27.70;57.40
41290;DHT22;36117;46.680;11.154;2022-10-16T09:27:14;28.00;56.80
41290;DHT22;36117;46.680;11.154;2022-10-16T09:29:40;28.00;55.80
41290;DHT22;36117;46.680;11.154;2022-10-16T09:32:15;27.80;55.80
41290;DHT22;36117;46.680;11.154;2022-10-16T09:34:47;27.90;55.70
41290;DHT22;36117;46.680;11.154;2022-10-16T09:37:17;29.10;54.20
41290;DHT22;36117;46.680;11.154;2022-10-16T09:39:52;30.40;51.80
41290;DHT22;36117;46.680;11.154;2022-10-16T09:42:20;31.40;49.10
41290;DHT22;36117;46.680;11.154;2022-10-16T09:44:51;32.10;47.10
41290;DHT22;36117;46.680;11.154;2022-10-16T09:47:21;32.10;46.20
41290;DHT22;36117;46.680;11.154;2022-10-16T09:52:21;33.00;43.80
41290;DHT22;36117;46.680;11.154;2022-10-16T09:54:55;32.50;43.20
41290;DHT22;36117;46.680;11.154;2022-10-16T09:57:22;32.30;44.00
41290;DHT22;36117;46.680;11.154;2022-10-16T09:59:55;31.90;43.90
41290;DHT22;36117;46.680;11.154;2022-10-16T10:02:30;31.80;44.50
41290;DHT22;36117;46.680;11.154;2022-10-16T10:04:57;32.10;44.80
41290;DHT22;36117;46.680;11.154;2022-10-16T10:07:39;32.00;44.60
41290;DHT22;36117;46.680;11.154;2022-10-16T10:10:21;32.30;44.30
41290;DHT22;36117;46.680;11.154;2022-10-16T10:12:47;32.50;43.70
41290;DHT22;36117;46.680;11.154;2022-10-16T10:15:14;32.90;43.40
41290;DHT22;36117;46.680;11.154;2022-10-16T10:17:53;33.20;42.90
41290;DHT22;36117;46.680;11.154;2022-10-16T10:22:54;32.70;41.70
41290;DHT22;36117;46.680;11.154;2022-10-16T10:30:56;33.50;40.30
41290;DHT22;36117;46.680;11.154;2022-10-16T10:33:44;34.00;40.30
41290;DHT22;36117;46.680;11.154;2022-10-16T10:36:28;34.30;39.40
41290;DHT22;36117;46.680;11.154;2022-10-16T10:39:25;33.10;40.50
41290;DHT22;36117;46.680;11.154;2022-10-16T10:44:51;33.70;40.00
41290;DHT22;36117;46.680;11.154;2022-10-16T10:52:59;33.40;39.50
41290;DHT22;36117;46.680;11.154;2022-10-16T10:55:46;32.70;39.90
41290;DHT22;36117;46.680;11.154;2022-10-16T11:00:49;32.80;40.20
41290;DHT22;36117;46.680;11.154;2022-10-16T11:03:56;32.30;40.50
41290;DHT22;36117;46.680;11.154;2022-10-16T11:06:25;31.80;41.00
41290;DHT22;36117;46.680;11.154;2022-10-16T11:11:50;30.70;42.60
41290;DHT22;36117;46.680;11.154;2022-10-16T11:15:25;30.90;42.10
41290;DHT22;36117;46.680;11.154;2022-10-16T11:23:17;32.00;41.50
41290;DHT22;36117;46.680;11.154;2022-10-16T11:25:45;31.80;42.20
41290;DHT22;36117;46.680;11.154;2022-10-16T11:28:39;30.30;43.40
41290;DHT22;36117;46.680;11.154;2022-10-16T11:33:46;30.00;44.50
41290;DHT22;36117;46.680;11.154;2022-10-16T11:41:45;30.40;43.70
41290;DHT22;36117;46.680;11.154;2022-10-16T11:47:26;29.90;43.20
41290;DHT22;36117;46.680;11.154;2022-10-16T11:49:58;30.10;43.00
41290;DHT22;36117;46.680;11.154;2022-10-16T11:52:36;30.60;42.80
41290;DHT22;36117;46.680;11.154;2022-10-16T11:57:38;31.50;39.80
41290;DHT22;36117;46.680;11.154;2022-10-16T12:00:30;31.30;40.30
41290;DHT22;36117;46.680;11.154;2022-10-16T12:08:18;30.00;43.50
41290;DHT22;36117;46.680;11.154;2022-10-16T12:10:46;29.40;41.40
41290;DHT22;36117;46.680;11.154;2022-10-16T12:16:05;29.40;42.80
41290;DHT22;36117;46.680;11.154;2022-10-16T12:18:31;29.30;43.20
41290;DHT22;36117;46.680;11.154;2022-10-16T12:20:58;29.50;42.10
41290;DHT22;36117;46.680;11.154;2022-10-16T12:23:29;29.40;41.50
41290;DHT22;36117;46.680;11.154;2022-10-16T12:25:57;28.60;41.20
41290;DHT22;36117;46.680;11.154;2022-10-16T12:28:31;28.50;41.80
41290;DHT22;36117;46.680;11.154;2022-10-16T12:31:09;28.50;42.00
41290;DHT22;36117;46.680;11.154;2022-10-16T12:34:02;28.60;42.30
41290;DHT22;36117;46.680;11.154;2022-10-16T12:36:32;28.50;42.70
41290;DHT22;36117;46.680;11.154;2022-10-16T12:38:59;28.60;43.60
41290;DHT22;36117;46.680;11.154;2022-10-16T12:41:34;29.10;42.50
41290;DHT22;36117;46.680;11.154;2022-10-16T12:44:03;29.60;42.10
41290;DHT22;36117;46.680;11.154;2022-10-16T12:49:14;29.60;42.00
41290;DHT22;36117;46.680;11.154;2022-10-16T12:51:45;29.20;41.90
41290;DHT22;36117;46.680;11.154;2022-10-16T13:00:25;29.50;42.10
41290;DHT22;36117;46.680;11.154;2022-10-16T13:06:13;29.70;42.00
41290;DHT22;36117;46.680;11.154;2022-10-16T13:08:50;29.50;42.90
41290;DHT22;36117;46.680;11.154;2022-10-16T13:14:32;29.50;43.40
41290;DHT22;36117;46.680;11.154;2022-10-16T13:20:16;29.30;43.90
41290;DHT22;36117;46.680;11.154;2022-10-16T13:30:27;28.80;44.30
41290;DHT22;36117;46.680;11.154;2022-10-16T13:35:50;29.20;43.30
41290;DHT22;36117;46.680;11.154;2022-10-16T13:38:27;28.70;44.20
41290;DHT22;36117;46.680;11.154;2022-10-16T13:40:58;28.30;44.40
41290;DHT22;36117;46.680;11.154;2022-10-16T13:43:37;28.40;44.60
41290;DHT22;36117;46.680;11.154;2022-10-16T13:46:10;29.10;43.90
41290;DHT22;36117;46.680;11.154;2022-10-16T13:48:37;29.20;43.60
41290;DHT22;36117;46.680;11.154;2022-10-16T13:53:35;28.30;44.80
41290;DHT22;36117;46.680;11.154;2022-10-16T13:56:16;27.90;45.70
41290;DHT22;36117;46.680;11.154;2022-10-16T13:58:43;28.10;45.90
41290;DHT22;36117;46.680;11.154;2022-10-16T14:01:25;28.40;45.50
41290;DHT22;36117;46.680;11.154;2022-10-16T14:03:52;28.20;45.80
41290;DHT22;36117;46.680;11.154;2022-10-16T14:06:20;28.20;46.00
41290;DHT22;36117;46.680;11.154;2022-10-16T14:09:06;28.40;45.80
41290;DHT22;36117;46.680;11.154;2022-10-16T14:12:17;28.40;46.10
41290;DHT22;36117;46.680;11.154;2022-10-16T14:14:25;28.50;46.10
41290;DHT22;36117;46.680;11.154;2022-10-16T14:16:52;28.90;45.30
41290;DHT22;36117;46.680;11.154;2022-10-16T14:21:48;29.00;45.10
41290;DHT22;36117;46.680;11.154;2022-10-16T14:24:30;28.90;45.40
41290;DHT22;36117;46.680;11.154;2022-10-16T14:26:57;28.80;45.80
41290;DHT22;36117;46.680;11.154;2022-10-16T14:29:24;28.70;46.20
41290;DHT22;36117;46.680;11.154;2022-10-16T14:31:58;28.40;46.40
41290;DHT22;36117;46.680;11.154;2022-10-16T14:34:26;28.40;46.70
41290;DHT22;36117;46.680;11.154;2022-10-16T14:36:54;28.60;46.80
41290;DHT22;36117;46.680;11.154;2022-10-16T14:39:22;28.80;46.60
41290;DHT22;36117;46.680;11.154;2022-10-16T14:41:50;28.60;46.80
41290;DHT22;36117;46.680;11.154;2022-10-16T14:44:17;28.30;47.40
41290;DHT22;36117;46.680;11.154;2022-10-16T14:46:45;28.10;48.30
41290;DHT22;36117;46.680;11.154;2022-10-16T14:51:38;27.60;49.20
41290;DHT22;36117;46.680;11.154;2022-10-16T14:54:08;27.40;49.60
41290;DHT22;36117;46.680;11.154;2022-10-16T14:59:39;26.90;49.90
41290;DHT22;36117;46.680;11.154;2022-10-16T15:04:45;27.10;50.20
41290;DHT22;36117;46.680;11.154;2022-10-16T15:07:11;27.20;49.80
41290;DHT22;36117;46.680;11.154;2022-10-16T15:09:36;27.30;49.00
41290;DHT22;36117;46.680;11.154;2022-10-16T15:12:03;27.10;50.10
41290;DHT22;36117;46.680;11.154;2022-10-16T15:14:28;26.80;50.80
41290;DHT22;36117;46.680;11.154;2022-10-16T15:16:54;26.90;50.10
41290;DHT22;36117;46.680;11.154;2022-10-16T15:22:04;26.90;49.30
41290;DHT22;36117;46.680;11.154;2022-10-16T15:24:30;26.60;49.60
41290;DHT22;36117;46.680;11.154;2022-10-16T15:26:56;26.60;50.00
41290;DHT22;36117;46.680;11.154;2022-10-16T15:29:22;26.60;50.20
41290;DHT22;36117;46.680;11.154;2022-10-16T15:31:48;26.60;50.40
41290;DHT22;36117;46.680;11.154;2022-10-16T15:34:14;26.50;50.80
41290;DHT22;36117;46.680;11.154;2022-10-16T15:36:40;26.60;50.90
41290;DHT22;36117;46.680;11.154;2022-10-16T15:39:18;26.60;51.60
41290;DHT22;36117;46.680;11.154;2022-10-16T15:41:46;26.50;51.70
41290;DHT22;36117;46.680;11.154;2022-10-16T15:44:20;26.50;52.40
41290;DHT22;36117;46.680;11.154;2022-10-16T15:46:48;26.80;52.80
41290;DHT22;36117;46.680;11.154;2022-10-16T15:49:15;26.50;53.50
41290;DHT22;36117;46.680;11.154;2022-10-16T15:51:42;26.20;54.40
41290;DHT22;36117;46.680;11.154;2022-10-16T15:54:08;26.40;54.40
41290;DHT22;36117;46.680;11.154;2022-10-16T15:56:34;26.30;54.20
41290;DHT22;36117;46.680;11.154;2022-10-16T15:59:03;26.20;54.20
41290;DHT22;36117;46.680;11.154;2022-10-16T16:01:34;26.00;53.80
41290;DHT22;36117;46.680;11.154;2022-10-16T16:04:01;25.70;54.90
41290;DHT22;36117;46.680;11.154;2022-10-16T16:06:27;25.50;54.10
41290;DHT22;36117;46.680;11.154;2022-10-16T16:08:54;25.30;55.70
41290;DHT22;36117;46.680;11.154;2022-10-16T16:11:20;25.10;56.30
41290;DHT22;36117;46.680;11.154;2022-10-16T16:13:47;25.00;56.00
41290;DHT22;36117;46.680;11.154;2022-10-16T16:16:16;25.00;55.80
41290;DHT22;36117;46.680;11.154;2022-10-16T16:18:42;24.70;56.70
41290;DHT22;36117;46.680;11.154;2022-10-16T16:21:10;24.50;57.60
41290;DHT22;36117;46.680;11.154;2022-10-16T16:23:36;24.00;59.40
41290;DHT22;36117;46.680;11.154;2022-10-16T16:26:14;23.90;60.20
41290;DHT22;36117;46.680;11.154;2022-10-16T16:28:42;23.80;60.10
41290;DHT22;36117;46.680;11.154;2022-10-16T16:31:08;24.10;60.50
41290;DHT22;36117;46.680;11.154;2022-10-16T16:33:35;24.00;60.80
41290;DHT22;36117;46.680;11.154;2022-10-16T16:36:03;23.60;60.00
41290;DHT22;36117;46.680;11.154;2022-10-16T16:38:29;23.40;61.30
41290;DHT22;36117;46.680;11.154;2022-10-16T16:40:55;23.40;61.80
41290;DHT22;36117;46.680;11.154;2022-10-16T16:43:27;23.20;61.20
41290;DHT22;36117;46.680;11.154;2022-10-16T16:45:54;23.10;61.50
41290;DHT22;36117;46.680;11.154;2022-10-16T16:48:20;23.00;61.80
41290;DHT22;36117;46.680;11.154;2022-10-16T16:50:46;23.00;61.90
41290;DHT22;36117;46.680;11.154;2022-10-16T16:53:12;22.90;62.40
41290;DHT22;36117;46.680;11.154;2022-10-16T16:55:38;22.80;63.20
41290;DHT22;36117;46.680;11.154;2022-10-16T16:58:04;22.80;63.90
41290;DHT22;36117;46.680;11.154;2022-10-16T17:03:05;22.30;65.00
41290;DHT22;36117;46.680;11.154;2022-10-16T17:05:31;22.00;66.20
41290;DHT22;36117;46.680;11.154;2022-10-16T17:07:57;22.00;66.90
41290;DHT22;36117;46.680;11.154;2022-10-16T17:10:23;21.70;67.50
41290;DHT22;36117;46.680;11.154;2022-10-16T17:12:48;21.70;67.70
41290;DHT22;36117;46.680;11.154;2022-10-16T17:15:14;21.70;67.50
41290;DHT22;36117;46.680;11.154;2022-10-16T17:17:40;21.90;67.50
41290;DHT22;36117;46.680;11.154;2022-10-16T17:20:07;21.90;67.10
41290;DHT22;36117;46.680;11.154;2022-10-16T17:22:34;22.20;67.20
41290;DHT22;36117;46.680;11.154;2022-10-16T17:25:00;22.20;66.60
41290;DHT22;36117;46.680;11.154;2022-10-16T17:27:28;22.10;66.50
41290;DHT22;36117;46.680;11.154;2022-10-16T17:29:54;22.00;66.80
41290;DHT22;36117;46.680;11.154;2022-10-16T17:32:20;22.10;67.10
41290;DHT22;36117;46.680;11.154;2022-10-16T17:35:04;22.20;67.10
41290;DHT22;36117;46.680;11.154;2022-10-16T17:37:31;22.20;65.90